createdAt,value
2022-11-16T00:02:10.615Z,14.60
2022-11-16T00:04:37.415Z,14.47
2022-11-16T00:07:04.271Z,14.43
2022-11-16T00:09:32.103Z,14.52
2022-11-16T00:12:07.101Z,14.65
2022-11-16T00:14:35.030Z,14.92
2022-11-16T00:17:02.190Z,14.84
2022-11-16T00:19:28.991Z,14.76
2022-11-16T00:21:55.659Z,14.87
2022-11-16T00:24:23.730Z,14.82
2022-11-16T00:26:51.251Z,14.82
2022-11-16T00:29:20.810Z,14.63
2022-11-16T00:31:48.188Z,14.59
2022-11-16T00:34:15.463Z,14.58
2022-11-16T00:36:42.325Z,14.72
2022-11-16T00:39:11.869Z,14.78
2022-11-16T00:41:38.637Z,14.67
2022-11-16T00:44:05.285Z,14.64
2022-11-16T00:46:31.816Z,14.68
2022-11-16T00:48:58.425Z,14.68
2022-11-16T00:51:24.965Z,14.78
2022-11-16T00:53:51.482Z,14.58
2022-11-16T00:56:18.101Z,14.61
2022-11-16T00:58:44.715Z,14.63
2022-11-16T01:01:11.969Z,14.67
2022-11-16T01:03:39.122Z,14.64
2022-11-16T01:06:08.329Z,14.69
2022-11-16T01:08:36.840Z,14.56
2022-11-16T01:11:23.430Z,14.61
2022-11-16T01:13:50.135Z,14.50
2022-11-16T01:16:18.827Z,14.26
2022-11-16T01:18:51.194Z,14.36
2022-11-16T01:21:18.064Z,14.33
2022-11-16T01:23:44.572Z,14.44
2022-11-16T01:26:11.117Z,14.55
2022-11-16T01:28:37.767Z,14.42
2022-11-16T01:31:04.575Z,14.30
2022-11-16T01:33:31.138Z,14.09
2022-11-16T01:35:57.686Z,14.17
2022-11-16T01:38:28.552Z,14.15
2022-11-16T01:40:56.357Z,14.26
2022-11-16T01:43:24.557Z,14.46
2022-11-16T01:45:51.185Z,14.36
2022-11-16T01:48:27.761Z,14.29
2022-11-16T01:50:56.483Z,14.35
2022-11-16T01:53:24.800Z,14.31
2022-11-16T01:55:52.230Z,14.51
2022-11-16T01:58:23.116Z,14.56
2022-11-16T02:03:26.438Z,14.18
2022-11-16T02:06:02.900Z,14.15
2022-11-16T02:08:53.968Z,14.49
2022-11-16T02:11:33.259Z,14.30
2022-11-16T02:14:09.074Z,14.35
2022-11-16T02:17:14.272Z,14.46
2022-11-16T02:20:00.426Z,14.45
2022-11-16T02:22:45.007Z,14.49
2022-11-16T02:25:26.683Z,14.16
2022-11-16T02:28:13.150Z,14.13
2022-11-16T02:30:45.534Z,14.15
2022-11-16T02:33:16.399Z,14.14
2022-11-16T02:35:45.178Z,13.95
2022-11-16T02:38:17.425Z,13.91
2022-11-16T02:40:49.900Z,14.02
2022-11-16T02:43:26.533Z,13.98
2022-11-16T02:45:57.083Z,13.99
2022-11-16T02:48:28.924Z,14.21
2022-11-16T02:50:56.079Z,13.81
2022-11-16T02:53:24.335Z,14.11
2022-11-16T02:55:51.246Z,14.18
2022-11-16T02:58:21.385Z,14.17
2022-11-16T03:01:03.295Z,14.29
2022-11-16T03:03:50.795Z,14.36
2022-11-16T03:06:22.407Z,14.28
2022-11-16T03:08:58.332Z,14.23
2022-11-16T03:11:43.556Z,14.40
2022-11-16T03:14:16.679Z,14.13
2022-11-16T03:16:57.169Z,14.09
2022-11-16T03:19:36.528Z,13.91
2022-11-16T03:22:05.929Z,13.90
2022-11-16T03:24:32.729Z,13.89
2022-11-16T03:27:46.067Z,13.99
2022-11-16T03:30:23.839Z,13.90
2022-11-16T03:33:05.897Z,13.99
2022-11-16T03:35:41.001Z,13.98
2022-11-16T03:38:10.293Z,13.90
2022-11-16T03:40:38.532Z,13.81
2022-11-16T03:43:07.279Z,13.78
2022-11-16T03:45:34.203Z,13.76
2022-11-16T03:48:00.846Z,13.78
2022-11-16T03:50:27.700Z,13.83
2022-11-16T03:52:54.276Z,13.77
2022-11-16T03:55:20.837Z,13.63
2022-11-16T03:57:47.303Z,13.71
2022-11-16T04:00:14.026Z,13.60
2022-11-16T04:02:40.610Z,13.80
2022-11-16T04:05:33.528Z,13.73
2022-11-16T04:08:18.819Z,13.27
2022-11-16T04:11:04.382Z,13.34
2022-11-16T04:13:52.056Z,13.17
2022-11-16T04:16:37.969Z,13.34
2022-11-16T04:19:23.184Z,13.44
2022-11-16T04:22:12.043Z,13.41
2022-11-16T04:24:41.145Z,13.41
2022-11-16T04:27:29.734Z,13.38
2022-11-16T04:29:59.554Z,13.64
2022-11-16T04:32:45.719Z,13.54
2022-11-16T04:35:31.125Z,13.42
2022-11-16T04:37:59.309Z,13.21
2022-11-16T04:40:30.707Z,13.19
2022-11-16T04:42:59.596Z,13.53
2022-11-16T04:45:45.782Z,13.28
2022-11-16T04:48:14.548Z,13.09
2022-11-16T04:50:41.328Z,13.20
2022-11-16T04:53:08.560Z,13.44
2022-11-16T04:55:35.865Z,13.45
2022-11-16T04:58:02.884Z,13.29
2022-11-16T05:00:30.139Z,13.24
2022-11-16T05:03:00.999Z,13.39
2022-11-16T05:05:28.374Z,13.00
2022-11-16T05:07:55.000Z,12.77
2022-11-16T05:10:21.545Z,12.57
2022-11-16T05:12:48.140Z,12.53
2022-11-16T05:15:14.899Z,12.71
2022-11-16T05:17:41.453Z,12.70
2022-11-16T05:20:28.342Z,12.70
2022-11-16T05:22:56.283Z,12.70
2022-11-16T05:25:23.015Z,12.83
2022-11-16T05:27:49.936Z,12.74
2022-11-16T05:30:16.935Z,12.74
2022-11-16T05:32:44.030Z,12.52
2022-11-16T05:35:10.733Z,12.44
2022-11-16T05:37:37.341Z,12.47
2022-11-16T05:40:04.629Z,12.51
2022-11-16T05:42:31.234Z,12.58
2022-11-16T05:44:58.005Z,12.64
2022-11-16T05:47:24.570Z,12.65
2022-11-16T05:49:51.240Z,12.64
2022-11-16T05:52:17.769Z,12.66
2022-11-16T05:54:44.470Z,12.75
2022-11-16T05:57:11.113Z,12.78
2022-11-16T05:59:37.656Z,12.53
2022-11-16T06:02:04.881Z,12.49
2022-11-16T06:04:32.624Z,12.43
2022-11-16T06:06:59.215Z,12.48
2022-11-16T06:09:25.810Z,12.53
2022-11-16T06:11:52.376Z,12.45
2022-11-16T06:14:18.860Z,12.22
2022-11-16T06:16:45.416Z,12.10
2022-11-16T06:19:12.106Z,12.26
2022-11-16T06:21:38.625Z,12.34
2022-11-16T06:24:09.156Z,12.29
2022-11-16T06:26:36.639Z,12.25
2022-11-16T06:29:03.848Z,12.27
2022-11-16T06:31:30.772Z,12.13
2022-11-16T06:33:57.402Z,12.07
2022-11-16T06:36:23.902Z,11.69
2022-11-16T06:38:50.997Z,11.75
2022-11-16T06:41:17.649Z,11.60
2022-11-16T06:43:44.250Z,11.62
2022-11-16T06:46:10.753Z,11.60
2022-11-16T06:48:37.691Z,11.78
2022-11-16T06:51:04.403Z,11.66
2022-11-16T06:53:30.928Z,11.65
2022-11-16T06:56:07.213Z,11.52
2022-11-16T06:58:34.330Z,11.56
2022-11-16T07:01:09.290Z,11.71
2022-11-16T07:03:36.032Z,11.75
2022-11-16T07:06:13.538Z,11.92
2022-11-16T07:08:40.298Z,11.84
2022-11-16T07:11:08.961Z,11.97
2022-11-16T07:13:37.577Z,11.92
2022-11-16T07:16:05.730Z,11.99
2022-11-16T07:18:34.400Z,11.79
2022-11-16T07:21:10.117Z,11.98
2022-11-16T07:23:36.833Z,12.20
2022-11-16T07:26:04.874Z,12.33
2022-11-16T07:28:32.618Z,12.21
2022-11-16T07:31:08.856Z,12.25
2022-11-16T07:33:36.657Z,12.28
2022-11-16T07:36:12.044Z,12.20
2022-11-16T07:38:39.587Z,11.93
2022-11-16T07:41:11.357Z,11.91
2022-11-16T07:43:39.841Z,11.97
2022-11-16T07:48:57.997Z,11.98
2022-11-16T07:51:24.894Z,12.16
2022-11-16T07:53:57.743Z,12.25
2022-11-16T07:56:25.150Z,12.43
2022-11-16T07:58:51.976Z,12.56
2022-11-16T08:01:19.059Z,12.67
2022-11-16T08:03:46.771Z,13.04
2022-11-16T08:06:27.837Z,13.06
2022-11-16T08:08:58.233Z,13.03
2022-11-16T08:11:25.319Z,12.99
2022-11-16T08:13:52.148Z,13.36
2022-11-16T08:16:20.875Z,13.32
2022-11-16T08:18:47.666Z,13.41
2022-11-16T08:21:16.298Z,13.33
2022-11-16T08:23:44.964Z,13.25
2022-11-16T08:26:15.324Z,13.34
2022-11-16T08:28:44.154Z,13.34
2022-11-16T08:31:16.764Z,13.46
2022-11-16T08:33:43.402Z,13.56
2022-11-16T08:36:14.400Z,13.71
2022-11-16T08:38:41.264Z,13.48
2022-11-16T08:41:08.517Z,13.48
2022-11-16T08:43:36.127Z,13.52
2022-11-16T08:46:03.318Z,13.74
2022-11-16T08:48:30.669Z,13.99
2022-11-16T08:51:23.778Z,13.99
2022-11-16T08:53:55.887Z,14.04
2022-11-16T08:56:23.996Z,14.35
2022-11-16T08:58:58.197Z,14.21
2022-11-16T09:01:28.546Z,14.35
2022-11-16T09:03:55.765Z,14.46
2022-11-16T09:06:24.339Z,14.78
2022-11-16T09:08:51.626Z,14.61
2022-11-16T09:11:21.492Z,14.97
2022-11-16T09:13:49.459Z,14.96
2022-11-16T09:16:16.940Z,14.94
2022-11-16T09:18:44.321Z,15.05
2022-11-16T09:21:10.832Z,15.31
2022-11-16T09:23:37.560Z,15.41
2022-11-16T09:26:05.951Z,15.67
2022-11-16T09:28:33.048Z,15.64
2022-11-16T09:31:03.224Z,15.81
2022-11-16T09:33:31.286Z,15.46
2022-11-16T09:36:09.707Z,15.55
2022-11-16T09:39:13.266Z,15.54
2022-11-16T09:41:41.302Z,15.67
2022-11-16T09:44:35.490Z,15.80
2022-11-16T09:47:02.493Z,15.98
2022-11-16T09:49:33.096Z,16.19
2022-11-16T09:52:08.535Z,16.37
2022-11-16T09:54:40.244Z,16.34
2022-11-16T09:57:12.569Z,16.09
2022-11-16T09:59:49.808Z,16.17
2022-11-16T10:02:22.484Z,16.44
2022-11-16T10:05:15.174Z,16.53
2022-11-16T10:08:02.869Z,16.46
2022-11-16T10:10:40.234Z,16.37
2022-11-16T10:13:10.206Z,16.42
2022-11-16T10:16:14.411Z,16.50
2022-11-16T10:19:36.356Z,16.38
2022-11-16T10:22:44.224Z,16.39
2022-11-16T10:25:22.472Z,16.52
2022-11-16T10:28:11.824Z,16.57
2022-11-16T10:30:43.068Z,16.72
2022-11-16T10:33:17.107Z,16.72
2022-11-16T10:35:48.207Z,16.64
2022-11-16T10:38:19.070Z,16.62
2022-11-16T10:41:01.689Z,16.53
2022-11-16T10:43:32.850Z,16.55
2022-11-16T10:46:06.061Z,16.40
2022-11-16T10:48:48.740Z,16.40
2022-11-16T10:51:15.715Z,16.31
2022-11-16T10:53:44.259Z,16.40
2022-11-16T10:56:20.354Z,16.65
2022-11-16T10:58:50.763Z,16.58
2022-11-16T11:01:42.476Z,16.75
2022-11-16T11:04:14.301Z,16.69
2022-11-16T11:06:41.468Z,16.72
2022-11-16T11:09:34.385Z,16.68
2022-11-16T11:12:19.634Z,16.93
2022-11-16T11:15:03.401Z,16.88
2022-11-16T11:17:31.299Z,16.87
2022-11-16T11:20:13.064Z,17.09
2022-11-16T11:22:54.566Z,17.25
2022-11-16T11:26:00.633Z,17.43
2022-11-16T11:28:28.842Z,17.42
2022-11-16T11:31:05.284Z,17.43
2022-11-16T11:33:41.424Z,17.46
2022-11-16T11:36:19.040Z,17.56
2022-11-16T11:39:20.825Z,17.71
2022-11-16T11:42:00.903Z,17.66
2022-11-16T11:44:37.764Z,17.65
2022-11-16T11:50:17.667Z,17.86
2022-11-16T11:52:53.123Z,17.88
2022-11-16T11:55:19.793Z,17.97
2022-11-16T11:57:49.178Z,18.17
2022-11-16T12:00:18.320Z,18.14
2022-11-16T12:03:18.561Z,18.12
2022-11-16T12:06:07.769Z,18.23
2022-11-16T12:08:46.144Z,18.20
2022-11-16T12:11:39.129Z,17.87
2022-11-16T12:14:27.876Z,18.21
2022-11-16T12:17:10.056Z,18.43
2022-11-16T12:19:59.509Z,18.19
2022-11-16T12:22:47.635Z,18.25
2022-11-16T12:25:49.352Z,18.44
2022-11-16T12:28:29.527Z,18.48
2022-11-16T12:30:58.885Z,18.26
2022-11-16T12:33:37.498Z,18.32
2022-11-16T12:36:21.431Z,18.51
2022-11-16T12:38:59.908Z,18.35
2022-11-16T12:41:26.428Z,18.52
2022-11-16T12:44:05.362Z,18.53
2022-11-16T12:46:56.911Z,18.52
2022-11-16T12:49:35.879Z,18.52
2022-11-16T12:52:12.149Z,18.51
2022-11-16T12:55:23.972Z,18.55
2022-11-16T12:57:51.119Z,18.62
2022-11-16T13:00:19.813Z,18.60
2022-11-16T13:03:04.393Z,18.55
2022-11-16T13:05:40.339Z,18.56
2022-11-16T13:08:18.240Z,18.60
2022-11-16T13:10:49.321Z,18.51
2022-11-16T13:13:37.379Z,18.63
2022-11-16T13:16:05.681Z,18.50
2022-11-16T13:18:34.768Z,18.39
2022-11-16T13:21:07.169Z,18.53
2022-11-16T13:24:11.059Z,18.67
2022-11-16T13:26:49.868Z,18.66
2022-11-16T13:29:27.289Z,18.35
2022-11-16T13:32:12.673Z,18.38
2022-11-16T13:34:40.514Z,18.41
2022-11-16T13:37:38.703Z,18.38
2022-11-16T13:40:05.227Z,18.02
2022-11-16T13:42:34.157Z,17.88
2022-11-16T13:45:09.596Z,18.20
2022-11-16T13:47:37.464Z,17.92
2022-11-16T13:50:06.938Z,17.90
2022-11-16T13:55:44.018Z,18.04
2022-11-16T13:58:19.996Z,18.06
2022-11-16T14:00:57.550Z,18.11
2022-11-16T14:03:30.669Z,18.08
2022-11-16T14:05:58.582Z,18.29
2022-11-16T14:08:25.066Z,18.39
2022-11-16T14:10:51.740Z,18.17
2022-11-16T14:13:30.467Z,18.01
2022-11-16T14:16:15.549Z,18.16
2022-11-16T14:18:46.917Z,18.18
2022-11-16T14:21:21.980Z,17.90
2022-11-16T14:23:57.415Z,17.89
2022-11-16T14:26:28.347Z,17.79
2022-11-16T14:29:23.339Z,17.94
2022-11-16T14:31:54.927Z,17.57
2022-11-16T14:34:41.056Z,17.73
2022-11-16T14:37:39.314Z,17.97
2022-11-16T14:40:15.063Z,17.85
2022-11-16T14:43:15.362Z,17.86
2022-11-16T14:45:39.604Z,17.89
2022-11-16T14:48:18.741Z,17.85
2022-11-16T14:51:07.995Z,17.87
2022-11-16T14:53:39.203Z,17.77
2022-11-16T14:56:09.486Z,17.77
2022-11-16T14:58:36.616Z,17.68
2022-11-16T15:01:13.120Z,17.67
2022-11-16T15:03:58.810Z,17.58
2022-11-16T15:06:27.050Z,17.54
2022-11-16T15:09:00.572Z,17.55
2022-11-16T15:12:00.839Z,17.45
2022-11-16T15:14:32.099Z,17.61
2022-11-16T15:17:00.379Z,17.46
2022-11-16T15:19:30.983Z,17.09
2022-11-16T15:22:00.647Z,17.18
2022-11-16T15:24:33.519Z,17.33
2022-11-16T15:27:37.309Z,17.23
2022-11-16T15:30:23.510Z,16.97
2022-11-16T15:32:52.351Z,16.94
2022-11-16T15:35:32.495Z,16.92
2022-11-16T15:38:06.472Z,16.81
2022-11-16T15:40:34.554Z,16.68
2022-11-16T15:43:04.841Z,16.68
2022-11-16T15:45:32.656Z,16.66
2022-11-16T15:48:02.017Z,16.65
2022-11-16T15:50:28.908Z,16.63
2022-11-16T15:52:56.716Z,16.68
2022-11-16T15:55:38.877Z,16.65
2022-11-16T15:58:30.875Z,16.66
2022-11-16T16:00:59.340Z,16.55
2022-11-16T16:03:32.936Z,16.47
2022-11-16T16:06:01.127Z,16.35
2022-11-16T16:08:39.635Z,16.37
2022-11-16T16:11:32.452Z,16.24
2022-11-16T16:14:03.618Z,16.45
2022-11-16T16:16:38.651Z,16.16
2022-11-16T16:19:24.316Z,16.29
2022-11-16T16:21:52.053Z,16.29
2022-11-16T16:24:47.235Z,16.21
2022-11-16T16:27:25.274Z,16.10
2022-11-16T16:29:54.376Z,16.05
2022-11-16T16:32:32.059Z,16.02
2022-11-16T16:35:01.633Z,15.98
2022-11-16T16:37:30.803Z,16.00
2022-11-16T16:39:58.377Z,15.93
2022-11-16T16:42:25.324Z,15.79
2022-11-16T16:44:52.218Z,15.89
2022-11-16T16:47:22.433Z,16.15
2022-11-16T16:49:49.441Z,16.03
2022-11-16T16:52:16.362Z,15.99
2022-11-16T16:54:43.720Z,15.92
2022-11-16T16:57:15.210Z,15.75
2022-11-16T16:59:42.695Z,15.70
2022-11-16T17:02:13.297Z,15.73
2022-11-16T17:04:40.437Z,15.75
2022-11-16T17:07:07.056Z,15.67
2022-11-16T17:09:33.884Z,15.57
2022-11-16T17:12:00.411Z,15.63
2022-11-16T17:14:27.023Z,15.64
2022-11-16T17:16:53.777Z,15.56
2022-11-16T17:19:22.639Z,15.60
2022-11-16T17:21:51.323Z,15.59
2022-11-16T17:24:17.930Z,15.66
2022-11-16T17:26:48.307Z,15.62
2022-11-16T17:29:15.326Z,15.66
2022-11-16T17:31:45.151Z,15.47
2022-11-16T17:34:13.809Z,15.54
2022-11-16T17:36:41.254Z,15.60
2022-11-16T17:39:07.869Z,15.51
2022-11-16T17:41:34.496Z,15.45
2022-11-16T17:44:01.075Z,15.56
2022-11-16T17:46:29.211Z,15.36
2022-11-16T17:48:56.167Z,15.42
2022-11-16T17:51:25.132Z,15.69
2022-11-16T17:53:52.830Z,15.69
2022-11-16T17:56:21.676Z,15.56
2022-11-16T17:58:50.155Z,15.32
2022-11-16T18:01:17.107Z,15.36
2022-11-16T18:03:43.653Z,15.31
2022-11-16T18:06:20.728Z,15.32
2022-11-16T18:08:47.386Z,15.36
2022-11-16T18:11:15.917Z,15.41
2022-11-16T18:13:43.567Z,15.26
2022-11-16T18:16:12.399Z,15.27
2022-11-16T18:18:39.873Z,15.28
2022-11-16T18:21:08.222Z,15.18
2022-11-16T18:23:36.763Z,15.10
2022-11-16T18:26:11.501Z,15.16
2022-11-16T18:28:38.155Z,15.16
2022-11-16T18:31:08.559Z,14.99
2022-11-16T18:33:37.197Z,15.08
2022-11-16T18:36:05.814Z,14.98
2022-11-16T18:38:32.648Z,15.02
2022-11-16T18:41:11.814Z,14.95
2022-11-16T18:43:56.423Z,15.18
2022-11-16T18:46:26.504Z,15.15
2022-11-16T18:48:53.547Z,14.98
2022-11-16T18:51:21.320Z,15.03
2022-11-16T18:53:49.691Z,15.10
2022-11-16T18:56:17.354Z,14.97
2022-11-16T18:58:50.330Z,14.98
2022-11-16T19:01:19.758Z,15.16
2022-11-16T19:03:46.498Z,15.14
2022-11-16T19:06:14.882Z,15.29
2022-11-16T19:08:42.314Z,15.43
2022-11-16T19:11:14.475Z,15.32
2022-11-16T19:13:42.490Z,15.27
2022-11-16T19:16:11.028Z,15.45
2022-11-16T19:18:38.450Z,15.46
2022-11-16T19:21:10.776Z,15.62
2022-11-16T19:23:42.982Z,15.56
2022-11-16T19:26:12.260Z,15.55
2022-11-16T19:28:40.487Z,15.43
2022-11-16T19:31:12.680Z,15.41
2022-11-16T19:33:39.396Z,15.40
2022-11-16T19:36:11.411Z,15.32
2022-11-16T19:38:38.564Z,15.40
2022-11-16T19:41:06.352Z,15.46
2022-11-16T19:43:33.976Z,15.40
2022-11-16T19:46:13.232Z,15.26
2022-11-16T19:48:50.355Z,15.26
2022-11-16T19:51:18.435Z,15.28
2022-11-16T19:54:37.374Z,15.49
2022-11-16T19:57:52.310Z,15.68
2022-11-16T20:00:49.346Z,15.71
2022-11-16T20:04:03.812Z,15.41
2022-11-16T20:06:52.046Z,15.57
2022-11-16T20:09:38.239Z,15.65
2022-11-16T20:12:59.054Z,15.67
2022-11-16T20:15:26.326Z,15.54
2022-11-16T20:18:08.908Z,15.92
2022-11-16T20:20:42.383Z,15.46
2022-11-16T20:23:14.452Z,15.53
2022-11-16T20:25:41.615Z,15.39
2022-11-16T20:28:17.675Z,15.41
2022-11-16T20:31:01.126Z,15.44
2022-11-16T20:33:36.186Z,15.54
2022-11-16T20:36:08.938Z,15.44
2022-11-16T20:38:41.472Z,15.35
2022-11-16T20:41:48.206Z,15.55
2022-11-16T20:44:41.024Z,15.49
2022-11-16T20:47:34.281Z,15.54
2022-11-16T20:50:19.710Z,15.68
2022-11-16T20:53:17.557Z,15.40
2022-11-16T20:56:04.050Z,15.49
2022-11-16T20:58:34.926Z,15.33
2022-11-16T21:01:41.550Z,15.68
2022-11-16T21:04:32.026Z,15.54
2022-11-16T21:07:02.217Z,15.39
2022-11-16T21:09:52.223Z,15.62
2022-11-16T21:12:42.614Z,15.48
2022-11-16T21:15:17.586Z,15.36
2022-11-16T21:18:08.427Z,15.57
2022-11-16T21:20:48.825Z,15.90
2022-11-16T21:23:36.616Z,15.79
2022-11-16T21:26:30.235Z,15.54
2022-11-16T21:29:11.891Z,15.55
2022-11-16T21:32:04.779Z,15.48
2022-11-16T21:34:40.098Z,15.42
2022-11-16T21:37:12.750Z,15.46
2022-11-16T21:39:51.107Z,15.29
2022-11-16T21:42:29.492Z,15.55
2022-11-16T21:45:08.616Z,15.50
2022-11-16T21:47:47.243Z,15.40
2022-11-16T21:50:31.177Z,15.60
2022-11-16T21:53:04.122Z,15.37
2022-11-16T21:55:51.734Z,15.23
2022-11-16T21:58:18.808Z,15.30
2022-11-16T22:00:56.769Z,15.44
2022-11-16T22:03:37.580Z,15.21
2022-11-16T22:06:52.959Z,15.16
2022-11-16T22:09:38.248Z,15.10
2022-11-16T22:12:13.868Z,15.12
2022-11-16T22:14:43.610Z,15.14
2022-11-16T22:17:21.800Z,15.15
2022-11-16T22:19:55.040Z,15.06
2022-11-16T22:22:38.314Z,15.11
2022-11-16T22:25:22.643Z,15.04
2022-11-16T22:28:19.618Z,15.38
2022-11-16T22:30:52.187Z,15.24
2022-11-16T22:33:27.838Z,15.16
2022-11-16T22:36:21.328Z,14.98
2022-11-16T22:39:09.402Z,15.09
2022-11-16T22:42:02.559Z,14.99
2022-11-16T22:44:38.540Z,15.14
2022-11-16T22:47:14.564Z,15.01
2022-11-16T22:49:56.130Z,15.06
2022-11-16T22:52:53.814Z,15.18
2022-11-16T22:55:21.008Z,15.24
2022-11-16T22:57:51.244Z,15.57
2022-11-16T23:00:21.651Z,15.52
2022-11-16T23:02:55.443Z,15.20
2022-11-16T23:05:22.949Z,14.96
2022-11-16T23:07:59.525Z,15.04
2022-11-16T23:10:55.677Z,14.97
2022-11-16T23:13:43.869Z,14.91
2022-11-16T23:16:14.305Z,14.77
2022-11-16T23:19:09.429Z,14.85
2022-11-16T23:21:57.774Z,15.09
2022-11-16T23:24:45.763Z,15.00
2022-11-16T23:27:34.198Z,14.94
2022-11-16T23:30:13.310Z,14.97
2022-11-16T23:32:48.231Z,15.07
2022-11-16T23:35:18.259Z,14.98
2022-11-16T23:38:17.381Z,14.89
2022-11-16T23:40:44.474Z,14.72
2022-11-16T23:43:40.511Z,14.97
2022-11-16T23:46:16.957Z,14.77
2022-11-16T23:49:09.498Z,14.92
2022-11-16T23:51:36.591Z,14.86
2022-11-16T23:54:11.940Z,14.87
2022-11-16T23:56:47.864Z,14.93
2022-11-16T23:59:20.417Z,14.88
